createdAt,value
2022-09-14T00:01:29.674Z,65.71
2022-09-14T00:04:00.498Z,65.73
2022-09-14T00:06:30.480Z,65.34
2022-09-14T00:09:00.723Z,65.53
2022-09-14T00:11:30.522Z,65.27
2022-09-14T00:13:59.315Z,65.04
2022-09-14T00:16:29.802Z,64.71
2022-09-14T00:19:00.283Z,64.85
2022-09-14T00:21:29.627Z,64.67
2022-09-14T00:23:57.372Z,64.38
2022-09-14T00:26:25.781Z,64.51
2022-09-14T00:29:04.241Z,64.70
2022-09-14T00:31:33.820Z,64.43
2022-09-14T00:34:02.234Z,64.94
2022-09-14T00:36:33.802Z,65.35
2022-09-14T00:39:01.723Z,65.11
2022-09-14T00:41:32.862Z,65.21
2022-09-14T00:44:03.168Z,65.46
2022-09-14T00:46:33.009Z,65.59
2022-09-14T00:49:02.987Z,65.45
2022-09-14T00:51:34.733Z,65.14
2022-09-14T00:54:03.110Z,65.12
2022-09-14T00:56:31.621Z,65.67
2022-09-14T00:59:02.775Z,65.48
2022-09-14T01:01:30.666Z,65.81
2022-09-14T01:03:58.438Z,65.56
2022-09-14T01:06:36.906Z,65.86
2022-09-14T01:09:14.102Z,66.12
2022-09-14T01:11:56.410Z,65.84
2022-09-14T01:14:32.974Z,65.75
2022-09-14T01:17:08.183Z,66.39
2022-09-14T01:20:11.064Z,66.55
2022-09-14T01:22:47.599Z,66.17
2022-09-14T01:25:37.553Z,66.01
2022-09-14T01:28:11.276Z,66.30
2022-09-14T01:30:42.410Z,66.21
2022-09-14T01:33:16.037Z,66.84
2022-09-14T01:35:50.214Z,66.77
2022-09-14T01:38:22.363Z,67.05
2022-09-14T01:40:52.386Z,66.55
2022-09-14T01:43:25.923Z,66.19
2022-09-14T01:45:58.643Z,66.55
2022-09-14T01:48:35.561Z,66.98
2022-09-14T01:51:09.374Z,66.86
2022-09-14T01:53:41.095Z,66.50
2022-09-14T01:56:15.802Z,66.62
2022-09-14T01:58:49.027Z,66.09
2022-09-14T02:01:25.846Z,66.11
2022-09-14T02:03:59.187Z,66.30
2022-09-14T02:06:36.284Z,66.46
2022-09-14T02:09:06.276Z,68.12
2022-09-14T02:11:34.009Z,69.34
2022-09-14T02:14:03.321Z,69.33
2022-09-14T02:16:31.477Z,68.85
2022-09-14T02:19:01.600Z,68.27
2022-09-14T02:21:31.844Z,67.23
2022-09-14T02:24:01.199Z,67.28
2022-09-14T02:26:30.169Z,67.29
2022-09-14T02:28:58.492Z,67.44
2022-09-14T02:31:38.686Z,67.27
2022-09-14T02:34:12.893Z,67.76
2022-09-14T02:36:49.541Z,67.61
2022-09-14T02:39:28.063Z,67.27
2022-09-14T02:42:05.775Z,67.32
2022-09-14T02:44:42.455Z,67.28
2022-09-14T02:47:18.103Z,67.30
2022-09-14T02:49:53.207Z,67.60
2022-09-14T02:52:28.409Z,67.78
2022-09-14T02:55:01.656Z,67.47
2022-09-14T02:57:29.366Z,67.36
2022-09-14T02:59:57.065Z,67.34
2022-09-14T03:02:26.281Z,67.26
2022-09-14T03:04:54.048Z,66.99
2022-09-14T03:07:21.902Z,66.88
2022-09-14T03:09:49.719Z,66.63
2022-09-14T03:12:18.277Z,66.83
2022-09-14T03:14:45.990Z,66.53
2022-09-14T03:17:13.750Z,66.83
2022-09-14T03:19:42.801Z,66.59
2022-09-14T03:22:10.556Z,66.62
2022-09-14T03:24:38.279Z,66.49
2022-09-14T03:27:06.055Z,66.48
2022-09-14T03:29:33.799Z,66.72
2022-09-14T03:32:03.075Z,66.44
2022-09-14T03:34:30.965Z,66.60
2022-09-14T03:36:59.965Z,66.87
2022-09-14T03:39:28.809Z,67.40
2022-09-14T03:41:56.509Z,67.43
2022-09-14T03:44:24.317Z,66.97
2022-09-14T03:46:52.052Z,67.02
2022-09-14T03:49:19.828Z,66.94
2022-09-14T03:51:47.561Z,67.03
2022-09-14T03:54:16.703Z,66.79
2022-09-14T03:56:44.416Z,66.64
2022-09-14T03:59:12.440Z,66.39
2022-09-14T04:01:40.521Z,66.63
2022-09-14T04:04:08.289Z,66.23
2022-09-14T04:06:36.000Z,66.42
2022-09-14T04:09:03.789Z,66.38
2022-09-14T04:11:34.773Z,66.38
2022-09-14T04:14:03.891Z,66.33
2022-09-14T04:16:32.370Z,66.38
2022-09-14T04:19:00.203Z,66.59
2022-09-14T04:21:28.037Z,66.69
2022-09-14T04:24:13.872Z,66.47
2022-09-14T04:26:44.641Z,66.52
2022-09-14T04:29:14.572Z,66.38
2022-09-14T04:31:42.662Z,66.22
2022-09-14T04:34:12.359Z,66.34
2022-09-14T04:36:40.342Z,66.24
2022-09-14T04:39:09.181Z,66.30
2022-09-14T04:41:36.897Z,66.56
2022-09-14T04:44:05.979Z,66.37
2022-09-14T04:46:35.906Z,66.38
2022-09-14T04:49:04.311Z,66.28
2022-09-14T04:51:33.191Z,66.61
2022-09-14T04:54:02.771Z,66.43
2022-09-14T04:56:33.385Z,66.34
2022-09-14T04:59:04.194Z,66.25
2022-09-14T05:01:34.936Z,66.27
2022-09-14T05:04:03.439Z,66.14
2022-09-14T05:06:33.398Z,65.98
2022-09-14T05:09:02.660Z,65.83
2022-09-14T05:11:33.283Z,66.30
2022-09-14T05:14:02.206Z,66.09
2022-09-14T05:16:31.603Z,65.98
2022-09-14T05:19:02.292Z,65.93
2022-09-14T05:21:31.276Z,66.17
2022-09-14T05:24:00.765Z,66.01
2022-09-14T05:26:29.794Z,65.96
2022-09-14T05:28:59.314Z,65.90
2022-09-14T05:31:28.850Z,65.79
2022-09-14T05:33:56.813Z,65.68
2022-09-14T05:36:26.431Z,65.52
2022-09-14T05:38:54.263Z,65.43
2022-09-14T05:41:22.003Z,65.75
2022-09-14T05:43:49.760Z,65.64
2022-09-14T05:46:20.258Z,65.46
2022-09-14T05:48:51.314Z,65.54
2022-09-14T05:51:21.252Z,65.61
2022-09-14T05:53:51.448Z,65.37
2022-09-14T05:56:20.814Z,65.75
2022-09-14T05:58:49.360Z,65.96
2022-09-14T06:01:19.192Z,65.47
2022-09-14T06:03:48.552Z,65.45
2022-09-14T06:06:18.823Z,65.85
2022-09-14T06:08:50.162Z,65.14
2022-09-14T06:11:21.652Z,65.52
2022-09-14T06:13:49.913Z,65.37
2022-09-14T06:16:20.105Z,65.25
2022-09-14T06:18:49.407Z,65.19
2022-09-14T06:21:19.876Z,64.95
2022-09-14T06:23:48.972Z,64.98
2022-09-14T06:26:18.884Z,65.08
2022-09-14T06:28:46.664Z,65.15
2022-09-14T06:31:15.658Z,65.49
2022-09-14T06:33:47.812Z,65.53
2022-09-14T06:36:19.571Z,68.85
2022-09-14T06:38:48.933Z,69.81
2022-09-14T06:41:20.389Z,68.70
2022-09-14T06:43:49.068Z,67.62
2022-09-14T06:46:19.861Z,66.73
2022-09-14T06:48:49.679Z,66.42
2022-09-14T06:51:19.520Z,65.85
2022-09-14T06:53:48.506Z,65.88
2022-09-14T06:56:16.965Z,65.51
2022-09-14T06:58:46.381Z,66.13
2022-09-14T07:01:15.874Z,66.70
2022-09-14T07:03:45.014Z,67.61
2022-09-14T07:06:15.043Z,68.31
2022-09-14T07:08:42.813Z,69.22
2022-09-14T07:11:12.920Z,69.65
2022-09-14T07:13:41.169Z,69.64
2022-09-14T07:16:10.659Z,70.01
2022-09-14T07:18:38.830Z,69.25
2022-09-14T07:21:08.477Z,69.30
2022-09-14T07:23:38.187Z,68.87
2022-09-14T07:26:08.297Z,68.71
2022-09-14T07:28:37.801Z,68.65
2022-09-14T07:31:07.146Z,67.66
2022-09-14T07:33:36.292Z,67.60
2022-09-14T07:36:07.475Z,68.56
2022-09-14T07:38:51.788Z,67.52
2022-09-14T07:41:21.179Z,67.80
2022-09-14T07:43:50.220Z,67.63
2022-09-14T07:46:18.169Z,67.81
2022-09-14T07:48:48.021Z,67.86
2022-09-14T07:51:16.633Z,68.67
2022-09-14T07:53:45.544Z,67.72
2022-09-14T07:56:16.741Z,67.56
2022-09-14T07:58:44.993Z,67.98
2022-09-14T08:01:15.046Z,68.53
2022-09-14T08:03:44.453Z,70.63
2022-09-14T08:06:16.123Z,69.04
2022-09-14T08:08:45.693Z,68.95
2022-09-14T08:11:15.654Z,67.64
2022-09-14T08:13:45.919Z,66.18
2022-09-14T08:16:14.496Z,65.80
2022-09-14T08:18:42.628Z,66.42
2022-09-14T08:21:14.506Z,65.89
2022-09-14T08:23:43.074Z,65.85
2022-09-14T08:26:13.549Z,64.41
2022-09-14T08:28:41.986Z,65.22
2022-09-14T08:31:11.810Z,64.29
2022-09-14T08:33:41.089Z,64.48
2022-09-14T08:36:10.290Z,63.83
2022-09-14T08:38:39.830Z,64.10
2022-09-14T08:41:13.158Z,64.13
2022-09-14T08:43:41.057Z,64.52
2022-09-14T08:46:15.671Z,64.88
2022-09-14T08:48:49.177Z,64.25
2022-09-14T08:51:18.227Z,63.17
2022-09-14T08:53:47.462Z,62.74
2022-09-14T08:56:18.744Z,62.15
2022-09-14T08:58:59.431Z,61.50
2022-09-14T09:01:40.735Z,63.05
2022-09-14T09:04:24.246Z,62.21
2022-09-14T09:06:59.017Z,62.69
2022-09-14T09:09:34.612Z,62.40
2022-09-14T09:12:03.173Z,61.80
2022-09-14T09:14:35.070Z,61.12
2022-09-14T09:17:06.045Z,60.55
2022-09-14T09:19:39.380Z,59.73
2022-09-14T09:22:15.026Z,61.19
2022-09-14T09:24:48.795Z,61.37
2022-09-14T09:27:17.897Z,60.33
2022-09-14T09:29:46.028Z,60.37
2022-09-14T09:32:18.053Z,59.32
2022-09-14T09:34:52.098Z,58.33
2022-09-14T09:37:39.960Z,60.51
2022-09-14T09:40:16.447Z,59.90
2022-09-14T09:43:12.809Z,60.33
2022-09-14T09:45:54.580Z,59.64
2022-09-14T09:48:25.922Z,61.02
2022-09-14T09:51:02.178Z,60.90
2022-09-14T09:53:30.230Z,60.53
2022-09-14T09:55:59.419Z,58.54
2022-09-14T09:58:31.565Z,59.17
2022-09-14T10:01:01.618Z,60.02
2022-09-14T10:03:32.728Z,59.34
2022-09-14T10:06:03.134Z,57.66
2022-09-14T10:08:35.065Z,57.79
2022-09-14T10:11:04.893Z,57.60
2022-09-14T10:13:38.684Z,58.06
2022-09-14T10:16:16.909Z,57.88
2022-09-14T10:18:49.139Z,58.85
2022-09-14T10:21:18.765Z,59.90
2022-09-14T10:23:46.879Z,60.20
2022-09-14T10:26:35.253Z,60.50
2022-09-14T10:29:30.607Z,60.83
2022-09-14T10:32:05.089Z,61.23
2022-09-14T10:34:33.572Z,60.95
2022-09-14T10:37:14.712Z,61.29
2022-09-14T10:39:49.651Z,61.25
2022-09-14T10:42:30.059Z,59.73
2022-09-14T10:45:14.620Z,59.32
2022-09-14T10:48:00.351Z,60.81
2022-09-14T10:50:41.071Z,61.47
2022-09-14T10:53:23.601Z,62.68
2022-09-14T10:56:01.778Z,62.68
2022-09-14T10:58:57.926Z,62.85
2022-09-14T11:01:37.710Z,63.50
2022-09-14T11:04:19.549Z,63.42
2022-09-14T11:06:55.306Z,63.69
2022-09-14T11:09:26.786Z,63.47
2022-09-14T11:12:06.813Z,63.87
2022-09-14T11:15:04.543Z,63.48
2022-09-14T11:18:06.779Z,63.31
2022-09-14T11:20:43.814Z,64.05
2022-09-14T11:23:34.801Z,63.54
2022-09-14T11:26:08.867Z,63.95
2022-09-14T11:28:42.259Z,63.54
2022-09-14T11:31:21.897Z,64.34
2022-09-14T11:33:57.002Z,65.47
2022-09-14T11:36:27.279Z,64.60
2022-09-14T11:39:04.685Z,64.04
2022-09-14T11:41:40.314Z,63.65
2022-09-14T11:44:14.344Z,64.01
2022-09-14T11:46:47.801Z,64.51
2022-09-14T11:49:20.719Z,63.83
2022-09-14T11:51:53.052Z,64.10
2022-09-14T11:54:23.068Z,64.14
2022-09-14T11:56:55.785Z,64.35
2022-09-14T11:59:50.674Z,63.82
2022-09-14T12:02:51.899Z,64.51
2022-09-14T12:05:33.315Z,65.03
2022-09-14T12:08:04.341Z,66.09
2022-09-14T12:10:32.666Z,65.82
2022-09-14T12:13:21.071Z,66.54
2022-09-14T12:15:49.050Z,66.35
2022-09-14T12:18:28.179Z,67.33
2022-09-14T12:21:09.225Z,66.61
2022-09-14T12:23:46.172Z,66.37
2022-09-14T12:26:29.444Z,66.60
2022-09-14T12:29:02.295Z,66.51
2022-09-14T12:31:36.063Z,66.04
2022-09-14T12:34:25.636Z,67.10
2022-09-14T12:37:19.970Z,66.53
2022-09-14T12:40:14.333Z,65.80
2022-09-14T12:42:42.080Z,65.35
2022-09-14T12:45:47.182Z,64.81
2022-09-14T12:48:55.853Z,64.08
2022-09-14T12:51:35.367Z,64.34
2022-09-14T12:54:18.092Z,63.95
2022-09-14T12:56:59.894Z,64.51
2022-09-14T12:59:34.644Z,63.73
2022-09-14T13:02:28.396Z,62.65
2022-09-14T13:04:59.780Z,63.23
2022-09-14T13:07:33.046Z,62.36
2022-09-14T13:10:04.702Z,62.93
2022-09-14T13:12:38.172Z,63.34
2022-09-14T13:15:09.064Z,62.75
2022-09-14T13:17:36.909Z,62.70
2022-09-14T13:20:17.978Z,63.00
2022-09-14T13:22:45.704Z,61.71
2022-09-14T13:25:28.225Z,60.74
2022-09-14T13:27:57.393Z,60.24
2022-09-14T13:30:27.137Z,60.87
2022-09-14T13:32:58.196Z,62.13
2022-09-14T13:35:31.516Z,61.72
2022-09-14T13:38:01.345Z,61.62
2022-09-14T13:40:31.298Z,60.39
2022-09-14T13:43:00.663Z,61.94
2022-09-14T13:45:28.727Z,63.10
2022-09-14T13:47:57.040Z,63.71
2022-09-14T13:50:25.625Z,63.86
2022-09-14T13:53:03.537Z,62.91
2022-09-14T13:55:45.137Z,64.16
2022-09-14T13:58:22.335Z,64.34
2022-09-14T14:00:59.126Z,66.86
2022-09-14T14:03:31.909Z,66.59
2022-09-14T14:06:00.958Z,66.16
2022-09-14T14:08:35.180Z,66.73
2022-09-14T14:11:07.887Z,68.42
2022-09-14T14:13:37.539Z,68.17
2022-09-14T14:16:19.070Z,68.05
2022-09-14T14:18:54.990Z,67.53
2022-09-14T14:21:31.744Z,67.44
2022-09-14T14:24:27.832Z,68.63
2022-09-14T14:26:58.797Z,67.48
2022-09-14T14:29:26.881Z,67.68
2022-09-14T14:31:56.914Z,67.35
2022-09-14T14:34:27.235Z,67.14
2022-09-14T14:36:55.549Z,67.04
2022-09-14T14:39:26.487Z,67.05
2022-09-14T14:41:54.993Z,66.08
2022-09-14T14:44:28.197Z,66.58
2022-09-14T14:46:56.325Z,66.65
2022-09-14T14:49:24.225Z,67.25
2022-09-14T14:51:52.205Z,67.24
2022-09-14T14:54:20.236Z,69.25
2022-09-14T14:56:49.455Z,68.26
2022-09-14T14:59:29.429Z,66.91
2022-09-14T15:01:58.090Z,66.01
2022-09-14T15:04:26.411Z,66.79
2022-09-14T15:06:54.331Z,68.29
2022-09-14T15:09:23.994Z,68.15
2022-09-14T15:11:53.499Z,68.88
2022-09-14T15:14:26.714Z,69.87
2022-09-14T15:17:00.086Z,69.92
2022-09-14T15:19:28.706Z,69.46
2022-09-14T15:22:00.997Z,69.03
2022-09-14T15:24:30.380Z,68.95
2022-09-14T15:26:59.506Z,69.01
2022-09-14T15:29:27.283Z,69.55
2022-09-14T15:31:56.743Z,69.79
2022-09-14T15:34:24.795Z,69.11
2022-09-14T15:36:54.505Z,68.89
2022-09-14T15:39:27.552Z,68.17
2022-09-14T15:41:55.824Z,67.91
2022-09-14T15:44:24.031Z,67.58
2022-09-14T15:46:52.751Z,68.58
2022-09-14T15:49:23.766Z,68.23
2022-09-14T15:51:54.045Z,68.88
2022-09-14T15:54:23.961Z,69.73
2022-09-14T15:56:54.952Z,69.51
2022-09-14T15:59:23.539Z,69.59
2022-09-14T16:01:52.045Z,69.33
2022-09-14T16:04:20.279Z,69.01
2022-09-14T16:06:49.734Z,68.91
2022-09-14T16:09:20.426Z,70.30
2022-09-14T16:11:48.577Z,69.61
2022-09-14T16:14:16.362Z,69.94
2022-09-14T16:16:44.326Z,69.34
2022-09-14T16:19:14.357Z,69.46
2022-09-14T16:21:43.397Z,69.37
2022-09-14T16:24:15.272Z,69.27
2022-09-14T16:26:43.979Z,69.23
2022-09-14T16:29:13.530Z,68.91
2022-09-14T16:31:43.347Z,68.52
2022-09-14T16:34:13.783Z,68.45
2022-09-14T16:36:42.441Z,68.02
2022-09-14T16:39:14.054Z,67.69
2022-09-14T16:41:42.285Z,67.96
2022-09-14T16:44:13.941Z,67.89
2022-09-14T16:46:42.074Z,67.71
2022-09-14T16:49:10.177Z,67.55
2022-09-14T16:51:38.527Z,67.43
2022-09-14T16:54:06.968Z,67.62
2022-09-14T16:56:38.278Z,68.42
2022-09-14T16:59:07.457Z,68.59
2022-09-14T17:01:37.426Z,68.73
2022-09-14T17:04:09.550Z,69.03
2022-09-14T17:06:39.304Z,68.56
2022-09-14T17:09:09.328Z,68.15
2022-09-14T17:11:40.343Z,67.96
2022-09-14T17:14:09.010Z,68.42
2022-09-14T17:16:37.117Z,68.48
2022-09-14T17:19:05.815Z,68.77
2022-09-14T17:21:36.373Z,69.13
2022-09-14T17:24:05.383Z,69.33
2022-09-14T17:26:33.738Z,69.63
2022-09-14T17:29:04.489Z,69.17
2022-09-14T17:31:35.495Z,68.85
2022-09-14T17:34:05.983Z,68.92
2022-09-14T17:36:34.321Z,69.12
2022-09-14T17:39:07.882Z,69.34
2022-09-14T17:41:39.116Z,69.33
2022-09-14T17:44:10.839Z,69.53
2022-09-14T17:46:48.274Z,69.37
2022-09-14T17:49:19.018Z,69.60
2022-09-14T17:51:46.808Z,70.15
2022-09-14T17:54:14.508Z,69.82
2022-09-14T17:56:42.530Z,70.46
2022-09-14T17:59:13.971Z,69.78
2022-09-14T18:01:42.002Z,69.25
2022-09-14T18:04:11.996Z,68.74
2022-09-14T18:06:42.009Z,69.08
2022-09-14T18:09:13.258Z,69.02
2022-09-14T18:11:41.369Z,69.14
2022-09-14T18:14:12.630Z,69.20
2022-09-14T18:16:43.045Z,69.11
2022-09-14T18:19:11.484Z,68.90
2022-09-14T18:21:39.396Z,69.08
2022-09-14T18:24:07.607Z,69.00
2022-09-14T18:26:35.436Z,68.85
2022-09-14T18:29:03.743Z,68.84
2022-09-14T18:31:31.955Z,69.39
2022-09-14T18:34:02.322Z,69.36
2022-09-14T18:36:31.059Z,69.39
2022-09-14T18:38:59.525Z,69.41
2022-09-14T18:41:29.127Z,68.89
2022-09-14T18:43:56.845Z,68.83
2022-09-14T18:46:28.138Z,68.91
2022-09-14T18:48:58.144Z,68.96
2022-09-14T18:51:28.256Z,69.20
2022-09-14T18:54:01.110Z,69.02
2022-09-14T18:56:29.732Z,68.87
2022-09-14T18:58:57.558Z,68.75
2022-09-14T19:01:26.062Z,69.19
2022-09-14T19:03:55.907Z,69.30
2022-09-14T19:06:24.058Z,69.73
2022-09-14T19:08:53.233Z,69.42
2022-09-14T19:11:22.662Z,69.67
2022-09-14T19:13:55.548Z,68.98
2022-09-14T19:16:23.351Z,68.87
2022-09-14T19:18:51.215Z,68.78
2022-09-14T19:21:23.445Z,68.84
2022-09-14T19:24:00.469Z,70.63
2022-09-14T19:26:30.526Z,69.78
2022-09-14T19:29:00.538Z,69.57
2022-09-14T19:31:30.510Z,69.19
2022-09-14T19:33:59.061Z,69.11
2022-09-14T19:36:27.626Z,69.12
2022-09-14T19:39:02.227Z,69.74
2022-09-14T19:41:31.319Z,70.82
2022-09-14T19:43:59.413Z,71.08
2022-09-14T19:46:29.023Z,71.29
2022-09-14T19:48:56.891Z,70.74
2022-09-14T19:51:26.682Z,70.13
2022-09-14T19:53:57.362Z,69.54
2022-09-14T19:56:27.243Z,69.72
2022-09-14T19:58:57.145Z,70.03
2022-09-14T20:01:26.521Z,69.17
2022-09-14T20:03:54.970Z,69.21
2022-09-14T20:06:25.520Z,69.69
2022-09-14T20:08:57.241Z,69.21
2022-09-14T20:11:28.136Z,68.90
2022-09-14T20:13:57.204Z,69.36
2022-09-14T20:16:27.984Z,69.13
2022-09-14T20:18:57.231Z,69.31
2022-09-14T20:21:26.331Z,68.98
2022-09-14T20:24:14.584Z,69.34
2022-09-14T20:26:45.460Z,69.25
2022-09-14T20:29:13.310Z,69.00
2022-09-14T20:31:41.379Z,69.09
2022-09-14T20:34:13.447Z,69.19
2022-09-14T20:36:50.675Z,69.04
2022-09-14T20:39:55.219Z,68.90
2022-09-14T20:42:18.445Z,68.61
2022-09-14T20:44:46.729Z,68.66
2022-09-14T20:47:15.904Z,68.63
2022-09-14T20:49:43.670Z,69.00
2022-09-14T20:52:16.634Z,69.13
2022-09-14T20:54:52.634Z,68.66
2022-09-14T20:57:24.547Z,68.91
2022-09-14T20:59:52.467Z,69.03
2022-09-14T21:02:20.363Z,68.89
2022-09-14T21:04:48.349Z,69.14
2022-09-14T21:07:16.451Z,69.62
2022-09-14T21:09:46.757Z,69.01
2022-09-14T21:12:15.234Z,69.36
2022-09-14T21:14:45.109Z,69.16
2022-09-14T21:17:12.989Z,68.98
2022-09-14T21:19:40.809Z,68.73
2022-09-14T21:22:08.528Z,68.58
2022-09-14T21:24:36.305Z,68.45
2022-09-14T21:27:04.789Z,69.93
2022-09-14T21:29:32.653Z,69.71
2022-09-14T21:32:06.809Z,71.47
2022-09-14T21:34:36.674Z,71.61
2022-09-14T21:37:12.900Z,72.21
2022-09-14T21:42:47.924Z,70.34
2022-09-14T21:45:16.363Z,70.24
2022-09-14T21:47:51.452Z,69.91
2022-09-14T21:50:19.287Z,69.24
2022-09-14T21:52:51.367Z,69.44
2022-09-14T21:55:21.451Z,69.21
2022-09-14T21:57:52.164Z,68.98
2022-09-14T22:00:20.134Z,69.20
2022-09-14T22:02:47.986Z,69.42
2022-09-14T22:05:17.262Z,69.62
2022-09-14T22:07:45.128Z,70.05
2022-09-14T22:10:12.859Z,69.79
2022-09-14T22:12:40.587Z,69.62
2022-09-14T22:15:10.016Z,69.70
2022-09-14T22:17:38.640Z,69.54
2022-09-14T22:20:07.311Z,69.55
2022-09-14T22:22:36.481Z,68.64
2022-09-14T22:25:05.956Z,68.53
2022-09-14T22:27:33.846Z,68.69
2022-09-14T22:30:01.774Z,69.06
2022-09-14T22:32:29.859Z,69.62
2022-09-14T22:34:57.680Z,69.86
2022-09-14T22:37:25.458Z,69.94
2022-09-14T22:39:54.926Z,69.70
2022-09-14T22:42:23.865Z,70.21
2022-09-14T22:44:51.615Z,70.93
2022-09-14T22:47:19.351Z,71.52
2022-09-14T22:49:47.386Z,71.24
2022-09-14T22:52:15.162Z,71.66
2022-09-14T22:54:42.870Z,71.29
2022-09-14T22:57:12.009Z,70.59
2022-09-14T22:59:39.886Z,71.64
2022-09-14T23:02:07.746Z,72.20
2022-09-14T23:04:35.766Z,71.17
2022-09-14T23:07:04.283Z,71.75
2022-09-14T23:09:32.075Z,72.47
2022-09-14T23:12:00.011Z,72.67
2022-09-14T23:14:29.288Z,72.33
2022-09-14T23:16:57.090Z,71.86
2022-09-14T23:19:24.949Z,72.30
2022-09-14T23:21:52.723Z,73.09
2022-09-14T23:24:20.562Z,73.29
2022-09-14T23:26:48.548Z,72.13
2022-09-14T23:29:17.881Z,71.98
2022-09-14T23:31:47.125Z,71.39
2022-09-14T23:34:15.303Z,72.26
2022-09-14T23:36:43.052Z,72.95
2022-09-14T23:39:10.788Z,72.23
2022-09-14T23:41:39.206Z,71.62
2022-09-14T23:44:07.100Z,72.33
2022-09-14T23:46:34.839Z,72.64
2022-09-14T23:49:04.016Z,71.38
2022-09-14T23:51:31.784Z,71.93
2022-09-14T23:53:59.559Z,72.09
2022-09-14T23:56:27.350Z,71.83
2022-09-14T23:58:55.144Z,72.10
